Hauptseite
METAR-TAF:

METAR-TAF

Flughäfen :

Flughafen Erzurum

Erzurum, Türkei

Breite: 39-55N, Länge: 041-16E, Höhe: 1756 m

Beobachtung

Neuester Wetterbericht von vor 21 Minuten, um 03:20 UTC
Wind 11 kt aus Ost
Temperatur -1°C
Luftfeuchtigkeit 69%
Luftdruck 1028 hPa
Sichtweite 10 km oder mehr
keine Wolken unter 1500 m und keine Kumulonimbus oder Gewitterwolken

METAR: LTCE 170320Z 08011KT CAVOK M01/M06 Q1028 NOSIG

Zeit: 06:41 (03:41 UTC)

Prognose

Neuester Wetterbericht von vor 5 Stunden und 1 Minuten, um 22:40 UTC
Gültige Prognose vom 17 um 00 UTC bis 17 um 24 UTC
Wind 9 kt aus Ost
Sichtweite 10 km oder mehr
keine Wolken unter 1500 m und keine Kumulonimbus oder Gewitterwolken

TAF: LTCE 162240Z 1700/1724 09009KT CAVOK

Wetterbeobachtungen und Prognosen von mehr als 4000 Flughäfen (METAR und TAF Bericht).

Die verfügbaren Stationen werden durch gelbe und rote Markierungen auf der Karte dargestellt.

Führen Sie die Maus auf sie, um den Namen der Station zu sehen.

Darauf klicken, um die Beobachtung von Wetterbeobachtungen und Prognosen zu sehen.

Um die Karte zu ändern : klicken Sie auf den grünen Tasten mit einem schwarzen Kreuz Zum Vergrößern, auf den grünen Button mit einem Gedankenstrich zu verkleinern, oder auf die grünen Pfeile für benachbarte Karten.


METAR-TAF: